Time;durP1;ratioP1;P1;durP2;ratioP2;P2;SDS_P1;SDS_P2;PMS_P1;PMS_P2;Temp;Humidity;BMP_temperature;BMP_pressure;BME280_temperature;BME280_humidity;BME280_pressure;Samples;Min_cycle;Max_cycle;Signal;HPM_P1;HPM_P2
2022/10/14 00:02:20;;;;;;;15.55;5.93;;;;;;;;;;5091192;28;20032;-72
2022/10/14 00:04:45;;;;;;;11.15;6.18;;;;;;;;;;5058374;28;20043;-72
2022/10/14 00:07:11;;;;;;;11.98;5.93;;;;;;;;;;5077575;28;20184;-72
2022/10/14 00:09:38;;;;;;;14.48;6.38;;;;;;;;;;5094100;28;20465;-72
2022/10/14 00:12:04;;;;;;;9.88;6.00;;;;;;;;;;5110669;28;20496;-72
2022/10/14 00:14:30;;;;;;;15.77;6.07;;;;;;;;;;5076443;28;20139;-72
2022/10/14 00:16:55;;;;;;;10.15;5.90;;;;;;;;;;5091065;28;20590;-72
2022/10/14 00:19:21;;;;;;;15.27;5.68;;;;;;;;;;5074000;28;20038;-72
2022/10/14 00:21:48;;;;;;;9.75;6.20;;;;;;;;;;5107944;28;20560;-72
2022/10/14 00:24:15;;;;;;;15.68;6.30;;;;;;;;;;5073817;28;20122;-77
2022/10/14 00:26:41;;;;;;;10.40;5.55;;;;;;;;;;5107992;28;20036;-75
2022/10/14 00:29:12;;;;;;;10.57;5.90;;;;;;;;;;5090990;28;20028;-76
2022/10/14 00:31:37;;;;;;;9.57;5.80;;;;;;;;;;5091358;28;20101;-74
2022/10/14 00:34:03;;;;;;;17.85;6.75;;;;;;;;;;5091445;28;20486;-75
2022/10/14 00:36:29;;;;;;;7.97;5.63;;;;;;;;;;5093110;28;20042;-75
2022/10/14 00:38:55;;;;;;;16.27;5.95;;;;;;;;;;5093156;28;20135;-74
2022/10/14 00:41:22;;;;;;;10.25;6.20;;;;;;;;;;5109573;28;20090;-74
2022/10/14 00:44:08;;;;;;;11.98;5.85;;;;;;;;;;5093246;28;20059;-74
2022/10/14 00:46:35;;;;;;;10.40;5.65;;;;;;;;;;5045847;28;20047;-74
2022/10/14 00:49:07;;;;;;;14.13;6.15;;;;;;;;;;5075815;28;20032;-74
2022/10/14 00:51:33;;;;;;;11.82;5.72;;;;;;;;;;5070082;28;20043;-75
2022/10/14 00:53:59;;;;;;;12.13;6.25;;;;;;;;;;5035624;28;20056;-75
2022/10/14 00:56:27;;;;;;;9.75;5.60;;;;;;;;;;5085292;28;20037;-75
2022/10/14 00:58:53;;;;;;;12.73;6.38;;;;;;;;;;5069595;28;20048;-74
2022/10/14 01:01:19;;;;;;;12.20;6.25;;;;;;;;;;5085327;28;20123;-75
2022/10/14 01:03:45;;;;;;;10.25;6.22;;;;;;;;;;5068857;28;20175;-75
2022/10/14 01:06:17;;;;;;;11.55;6.32;;;;;;;;;;5051247;28;20090;-75
2022/10/14 01:08:47;;;;;;;10.60;6.07;;;;;;;;;;5052614;28;20417;-75
2022/10/14 01:11:18;;;;;;;9.25;5.95;;;;;;;;;;5071117;28;20028;-74
2022/10/14 01:13:49;;;;;;;11.23;5.97;;;;;;;;;;5069882;28;20045;-75
2022/10/14 01:16:15;;;;;;;14.23;6.22;;;;;;;;;;5070920;28;20040;-74
2022/10/14 01:18:43;;;;;;;12.38;6.63;;;;;;;;;;5069996;28;20039;-74
2022/10/14 01:21:11;;;;;;;10.38;6.32;;;;;;;;;;5037157;28;20181;-74
2022/10/14 01:23:39;;;;;;;10.40;6.70;;;;;;;;;;5037440;28;20104;-75
2022/10/14 01:26:23;;;;;;;11.20;5.85;;;;;;;;;;5054258;28;20063;-74
2022/10/14 01:29:04;;;;;;;9.80;6.05;;;;;;;;;;5053345;28;20048;-75
2022/10/14 01:31:30;;;;;;;;;;;;;;;;;;5054456;28;20123;-75
2022/10/14 01:33:57;;;;;;;7.93;5.78;;;;;;;;;;5070183;28;20044;-75
2022/10/14 01:36:29;;;;;;;10.77;6.10;;;;;;;;;;5054319;28;20037;-75
2022/10/14 01:39:04;;;;;;;10.07;6.47;;;;;;;;;;5070422;28;20064;-75
2022/10/14 01:41:32;;;;;;;11.10;6.55;;;;;;;;;;5054119;28;20048;-75
2022/10/14 01:44:01;;;;;;;15.80;6.55;;;;;;;;;;5070874;28;20095;-77
2022/10/14 01:46:28;;;;;;;10.93;6.60;;;;;;;;;;5087381;28;20501;-76
2022/10/14 01:48:56;;;;;;;12.95;6.25;;;;;;;;;;5071191;28;20494;-76
2022/10/14 01:51:26;;;;;;;15.60;6.35;;;;;;;;;;5086907;28;20052;-77
2022/10/14 01:53:55;;;;;;;11.45;6.50;;;;;;;;;;5036745;28;20555;-76
2022/10/14 01:56:23;;;;;;;9.02;5.80;;;;;;;;;;5071019;28;20033;-76
2022/10/14 01:58:50;;;;;;;12.70;6.57;;;;;;;;;;5054254;28;20339;-77
2022/10/14 02:01:16;;;;;;;11.75;6.05;;;;;;;;;;5038472;28;20120;-77
2022/10/14 02:03:45;;;;;;;14.82;6.65;;;;;;;;;;5054939;28;20082;-77
2022/10/14 02:06:16;;;;;;;8.38;5.70;;;;;;;;;;5053971;28;20037;-74
2022/10/14 02:08:54;;;;;;;14.38;6.47;;;;;;;;;;5070630;28;20036;-74
2022/10/14 02:11:20;;;;;;;10.40;5.95;;;;;;;;;;5053779;28;20028;-76
2022/10/14 02:13:49;;;;;;;10.70;5.30;;;;;;;;;;5071013;28;20127;-76
2022/10/14 02:16:18;;;;;;;11.02;5.95;;;;;;;;;;5070331;28;20055;-73
2022/10/14 02:19:02;;;;;;;12.70;6.13;;;;;;;;;;5070926;28;20132;-73
2022/10/14 02:21:43;;;;;;;9.27;5.85;;;;;;;;;;5056442;28;20560;-75
2022/10/14 02:24:34;;;;;;;11.80;6.13;;;;;;;;;;5059165;28;20115;-75
2022/10/14 02:27:03;;;;;;;11.25;5.88;;;;;;;;;;5039905;28;20060;-73
2022/10/14 02:29:30;;;;;;;8.63;6.47;;;;;;;;;;5056411;28;20040;-74
2022/10/14 02:31:57;;;;;;;14.80;6.65;;;;;;;;;;5039391;28;20047;-73
2022/10/14 02:34:23;;;;;;;13.43;6.65;;;;;;;;;;5056181;28;20135;-72
2022/10/14 02:36:49;;;;;;;11.43;6.28;;;;;;;;;;5057005;28;20044;-72
2022/10/14 02:39:19;;;;;;;13.55;7.10;;;;;;;;;;5040225;28;20039;-72
2022/10/14 02:41:44;;;;;;;15.85;6.80;;;;;;;;;;5040246;28;20067;-72
2022/10/14 02:44:10;;;;;;;16.55;6.93;;;;;;;;;;5057135;28;20052;-72
2022/10/14 02:46:38;;;;;;;10.05;6.60;;;;;;;;;;5057442;28;20048;-72
2022/10/14 02:49:03;;;;;;;12.52;7.05;;;;;;;;;;5040140;28;20059;-72
2022/10/14 02:51:29;;;;;;;11.77;6.45;;;;;;;;;;5040067;28;20093;-72
2022/10/14 02:53:56;;;;;;;13.88;6.70;;;;;;;;;;5056658;28;20114;-72
2022/10/14 02:56:23;;;;;;;12.88;6.75;;;;;;;;;;5073714;28;20036;-72
2022/10/14 02:58:48;;;;;;;13.43;7.15;;;;;;;;;;5074805;28;20040;-74
2022/10/14 03:01:14;;;;;;;12.43;7.13;;;;;;;;;;5072457;28;20309;-74
2022/10/14 03:03:40;;;;;;;14.60;7.70;;;;;;;;;;5039550;28;20067;-77
2022/10/14 03:06:06;;;;;;;15.00;7.28;;;;;;;;;;5040714;28;20494;-75
2022/10/14 03:08:32;;;;;;;17.23;7.78;;;;;;;;;;5058244;28;20030;-74
2022/10/14 03:11:00;;;;;;;20.33;7.38;;;;;;;;;;5093097;28;20055;-73
2022/10/14 03:13:26;;;;;;;13.40;7.53;;;;;;;;;;5074289;28;20159;-73
2022/10/14 03:15:53;;;;;;;17.23;7.53;;;;;;;;;;5057088;28;20040;-73
2022/10/14 03:18:20;;;;;;;16.13;7.28;;;;;;;;;;5073607;28;20094;-74
2022/10/14 03:20:47;;;;;;;17.23;7.15;;;;;;;;;;5039588;28;20041;-73
2022/10/14 03:23:22;;;;;;;12.00;6.82;;;;;;;;;;5055379;28;20135;-74
2022/10/14 03:25:49;;;;;;;15.85;7.22;;;;;;;;;;5039646;28;20036;-76
2022/10/14 03:28:25;;;;;;;14.70;7.43;;;;;;;;;;5040968;28;20039;-72
2022/10/14 03:30:59;;;;;;;12.40;6.88;;;;;;;;;;5056168;28;20036;-74
2022/10/14 03:33:47;;;;;;;12.95;7.30;;;;;;;;;;5063793;28;20569;-74
2022/10/14 03:36:16;;;;;;;16.98;8.13;;;;;;;;;;5072062;28;20039;-74
2022/10/14 03:38:49;;;;;;;18.48;6.97;;;;;;;;;;5039551;28;20047;-74
2022/10/14 03:41:39;;;;;;;13.38;7.35;;;;;;;;;;5042408;28;20051;-74
2022/10/14 03:44:06;;;;;;;13.82;7.28;;;;;;;;;;5071649;28;20442;-73
2022/10/14 03:46:35;;;;;;;27.05;9.90;;;;;;;;;;5055942;28;20048;-72
2022/10/14 03:49:01;;;;;;;15.23;8.05;;;;;;;;;;5055042;28;20096;-70
2022/10/14 03:51:26;;;;;;;17.00;9.23;;;;;;;;;;5071117;28;20490;-75
2022/10/14 03:54:04;;;;;;;16.08;8.30;;;;;;;;;;5071276;28;20048;-75
2022/10/14 03:56:30;;;;;;;16.75;8.05;;;;;;;;;;5072471;28;20040;-75
2022/10/14 03:58:56;;;;;;;13.85;7.35;;;;;;;;;;5055590;28;20105;-74
2022/10/14 04:01:23;;;;;;;16.00;6.90;;;;;;;;;;5055053;28;20075;-74
2022/10/14 04:04:12;;;;;;;21.13;7.57;;;;;;;;;;5050011;28;20044;-74
2022/10/14 04:06:37;;;;;;;14.90;7.35;;;;;;;;;;5038413;28;20054;-74
2022/10/14 04:09:06;;;;;;;16.52;7.80;;;;;;;;;;5072028;28;20028;-77
2022/10/14 04:11:38;;;;;;;18.33;8.52;;;;;;;;;;5071511;28;20455;-76
2022/10/14 04:14:07;;;;;;;19.15;8.05;;;;;;;;;;5038539;28;20102;-77
2022/10/14 04:16:39;;;;;;;22.25;9.20;;;;;;;;;;5072938;28;20033;-76
2022/10/14 04:19:11;;;;;;;21.02;8.73;;;;;;;;;;5056395;28;20744;-74
2022/10/14 04:21:38;;;;;;;17.20;9.07;;;;;;;;;;5054929;28;20036;-74
2022/10/14 04:24:06;;;;;;;38.83;11.65;;;;;;;;;;5072129;28;20060;-74
2022/10/14 04:26:38;;;;;;;21.60;11.02;;;;;;;;;;5072250;28;20044;-74
2022/10/14 04:29:10;;;;;;;21.45;10.38;;;;;;;;;;5087199;28;20047;-73
2022/10/14 04:31:46;;;;;;;18.98;9.98;;;;;;;;;;5071634;28;20119;-73
2022/10/14 04:34:15;;;;;;;21.30;10.40;;;;;;;;;;5048314;28;20046;-80
2022/10/14 04:36:41;;;;;;;18.63;9.90;;;;;;;;;;5074454;28;20067;-75
2022/10/14 04:39:20;;;;;;;26.02;10.25;;;;;;;;;;5076887;28;20032;-73
2022/10/14 04:41:46;;;;;;;19.45;9.68;;;;;;;;;;5090407;28;20028;-70
2022/10/14 04:44:15;;;;;;;22.20;10.57;;;;;;;;;;5074641;28;20035;-71
2022/10/14 04:46:46;;;;;;;;;;;;;;;;;;5075491;28;20493;-70
2022/10/14 04:49:13;;;;;;;19.35;8.55;;;;;;;;;;5074993;28;19947;-75
2022/10/14 04:51:48;;;;;;;23.02;9.82;;;;;;;;;;5092482;28;20059;-75
2022/10/14 04:54:19;;;;;;;21.45;9.15;;;;;;;;;;5056186;28;20036;-73
2022/10/14 04:57:02;;;;;;;22.02;9.70;;;;;;;;;;5076302;28;20036;-74
2022/10/14 04:59:29;;;;;;;18.05;8.93;;;;;;;;;;5076324;28;20033;-75
2022/10/14 05:02:20;;;;;;;18.55;10.18;;;;;;;;;;5053294;28;20036;-73
2022/10/14 05:04:51;;;;;;;22.05;8.43;;;;;;;;;;5059865;28;20492;-75
2022/10/14 05:07:17;;;;;;;18.65;10.10;;;;;;;;;;5085123;28;20059;-71
2022/10/14 05:09:44;;;;;;;20.25;9.73;;;;;;;;;;5059735;28;20032;-73
2022/10/14 05:12:21;;;;;;;21.75;9.20;;;;;;;;;;5076752;28;20111;-73
2022/10/14 05:14:53;;;;;;;17.33;9.23;;;;;;;;;;5077601;28;20040;-73
2022/10/14 05:17:25;;;;;;;22.00;9.68;;;;;;;;;;5075046;28;20028;-72
2022/10/14 05:19:50;;;;;;;22.13;9.20;;;;;;;;;;5089915;28;20040;-74
2022/10/14 05:22:18;;;;;;;14.55;8.23;;;;;;;;;;5064498;28;20047;-76
2022/10/14 05:24:44;;;;;;;21.83;8.75;;;;;;;;;;5082825;28;20039;-75
2022/10/14 05:27:11;;;;;;;21.65;9.30;;;;;;;;;;5080455;28;20102;-75
2022/10/14 05:29:38;;;;;;;17.98;8.35;;;;;;;;;;5074941;28;20028;-73
2022/10/14 05:32:04;;;;;;;17.15;8.95;;;;;;;;;;5048505;28;20036;-75
2022/10/14 05:34:37;;;;;;;17.10;7.72;;;;;;;;;;5062991;28;20040;-75
2022/10/14 05:37:06;;;;;;;17.35;8.77;;;;;;;;;;5069284;28;20036;-75
2022/10/14 05:39:39;;;;;;;19.73;8.48;;;;;;;;;;5085967;28;20036;-75
2022/10/14 05:42:05;;;;;;;20.75;8.25;;;;;;;;;;5079383;28;20067;-75
2022/10/14 05:44:31;;;;;;;15.07;7.70;;;;;;;;;;5077300;28;20044;-73
2022/10/14 05:46:57;;;;;;;20.13;8.07;;;;;;;;;;5060851;28;20367;-72
2022/10/14 05:49:24;;;;;;;18.17;8.57;;;;;;;;;;5051827;28;20146;-71
2022/10/14 05:51:52;;;;;;;17.65;8.40;;;;;;;;;;5055815;28;20546;-71
2022/10/14 05:54:21;;;;;;;17.35;8.68;;;;;;;;;;5076531;28;20044;-73
2022/10/14 05:56:50;;;;;;;13.57;8.40;;;;;;;;;;5084560;28;20044;-72
2022/10/14 05:59:15;;;;;;;11.43;7.47;;;;;;;;;;5070425;28;20028;-73
2022/10/14 06:01:42;;;;;;;19.88;8.75;;;;;;;;;;5095828;28;20050;-73
2022/10/14 06:04:14;;;;;;;14.70;8.25;;;;;;;;;;5076848;28;20063;-72
2022/10/14 06:06:40;;;;;;;15.88;8.32;;;;;;;;;;5055354;28;20039;-73
2022/10/14 06:09:07;;;;;;;18.48;8.13;;;;;;;;;;5060750;28;20093;-77
2022/10/14 06:11:33;;;;;;;18.52;8.25;;;;;;;;;;5085575;28;20070;-74
2022/10/14 06:13:58;;;;;;;18.55;8.65;;;;;;;;;;5085308;28;20056;-76
2022/10/14 06:16:24;;;;;;;21.10;7.93;;;;;;;;;;5081852;28;20379;-75
2022/10/14 06:18:50;;;;;;;16.33;7.78;;;;;;;;;;5064989;28;20040;-72
2022/10/14 06:21:16;;;;;;;18.65;8.27;;;;;;;;;;5088832;28;20109;-78
2022/10/14 06:23:41;;;;;;;20.77;8.38;;;;;;;;;;5082631;28;20028;-74
2022/10/14 06:26:10;;;;;;;19.40;8.25;;;;;;;;;;5077515;28;20036;-73
2022/10/14 06:28:37;;;;;;;19.02;7.95;;;;;;;;;;5077100;28;20032;-72
2022/10/14 06:31:05;;;;;;;20.20;8.52;;;;;;;;;;5081964;28;20024;-74
2022/10/14 06:33:32;;;;;;;20.05;7.93;;;;;;;;;;5097943;28;20207;-72
2022/10/14 06:36:00;;;;;;;17.48;7.45;;;;;;;;;;5099177;28;20096;-74
2022/10/14 06:38:26;;;;;;;11.95;7.05;;;;;;;;;;5079593;28;20051;-73
2022/10/14 06:40:52;;;;;;;12.43;7.10;;;;;;;;;;5083231;28;20473;-72
2022/10/14 06:43:19;;;;;;;16.60;7.25;;;;;;;;;;5085467;28;20198;-73
2022/10/14 06:45:45;;;;;;;18.67;6.68;;;;;;;;;;5079076;28;20028;-73
2022/10/14 06:48:11;;;;;;;13.40;5.93;;;;;;;;;;5067738;28;20089;-74
2022/10/14 06:50:36;;;;;;;18.60;6.47;;;;;;;;;;5078079;28;20028;-73
2022/10/14 06:53:02;;;;;;;11.15;6.00;;;;;;;;;;5087543;28;20063;-73
2022/10/14 06:55:28;;;;;;;10.85;5.35;;;;;;;;;;5090027;28;20032;-73
2022/10/14 06:57:54;;;;;;;11.30;4.90;;;;;;;;;;5095367;28;20055;-74
2022/10/14 07:00:20;;;;;;;7.90;4.45;;;;;;;;;;5083873;28;20316;-75
2022/10/14 07:02:47;;;;;;;16.30;5.07;;;;;;;;;;5094017;28;20118;-75
2022/10/14 07:05:13;;;;;;;14.48;6.55;;;;;;;;;;5082450;28;20051;-73
2022/10/14 07:07:38;;;;;;;7.80;4.07;;;;;;;;;;5065539;28;20040;-74
2022/10/14 07:10:04;;;;;;;11.43;4.82;;;;;;;;;;5070874;28;20032;-74
2022/10/14 07:12:30;;;;;;;12.32;4.22;;;;;;;;;;5082532;28;20182;-74
2022/10/14 07:14:55;;;;;;;9.23;3.50;;;;;;;;;;5058776;28;20455;-73
2022/10/14 07:17:21;;;;;;;7.88;3.33;;;;;;;;;;5085878;28;20039;-74
2022/10/14 07:19:47;;;;;;;5.88;3.60;;;;;;;;;;5046490;28;20031;-74
2022/10/14 07:22:12;;;;;;;6.13;3.08;;;;;;;;;;5044442;28;20040;-77
2022/10/14 07:24:38;;;;;;;6.07;2.50;;;;;;;;;;5084691;28;20406;-73
2022/10/14 07:27:03;;;;;;;3.65;2.50;;;;;;;;;;5081047;28;20046;-74
2022/10/14 07:29:29;;;;;;;9.45;2.33;;;;;;;;;;5073633;28;20036;-76
2022/10/14 07:31:56;;;;;;;5.50;1.90;;;;;;;;;;5073067;28;20039;-79
2022/10/14 07:34:22;;;;;;;5.88;2.20;;;;;;;;;;5077502;28;20572;-79
2022/10/14 07:36:47;;;;;;;5.07;1.90;;;;;;;;;;5061958;28;20083;-80
2022/10/14 07:39:13;;;;;;;4.63;1.60;;;;;;;;;;5055829;28;20081;-79
2022/10/14 07:41:39;;;;;;;5.13;1.50;;;;;;;;;;5084592;28;20357;-78
2022/10/14 07:44:07;;;;;;;2.03;1.10;;;;;;;;;;5089963;28;20032;-79
2022/10/14 07:46:35;;;;;;;1.42;0.95;;;;;;;;;;5090983;28;20304;-78
2022/10/14 07:49:03;;;;;;;2.28;1.00;;;;;;;;;;5055636;28;20036;-78
2022/10/14 07:51:29;;;;;;;3.78;1.02;;;;;;;;;;5065846;28;20393;-79
2022/10/14 07:53:56;;;;;;;1.40;0.98;;;;;;;;;;5089170;28;20039;-79
2022/10/14 07:56:22;;;;;;;3.95;1.10;;;;;;;;;;5088108;28;20028;-79
2022/10/14 07:58:48;;;;;;;1.63;1.00;;;;;;;;;;5092202;28;20094;-79
2022/10/14 08:01:14;;;;;;;2.05;1.02;;;;;;;;;;5073456;28;20056;-78
2022/10/14 08:03:41;;;;;;;2.00;1.20;;;;;;;;;;5071466;28;20041;-80
2022/10/14 08:06:08;;;;;;;2.05;0.77;;;;;;;;;;5101544;28;20043;-78
2022/10/14 08:08:34;;;;;;;1.73;0.88;;;;;;;;;;5087004;28;20078;-78
2022/10/14 08:11:10;;;;;;;1.45;0.85;;;;;;;;;;5070959;28;20082;-78
2022/10/14 08:13:36;;;;;;;4.05;1.10;;;;;;;;;;5087386;28;20044;-79
2022/10/14 08:16:03;;;;;;;2.17;1.00;;;;;;;;;;5098726;28;20475;-78
2022/10/14 08:18:29;;;;;;;1.80;1.00;;;;;;;;;;5052225;28;20043;-77
2022/10/14 08:20:55;;;;;;;1.63;0.90;;;;;;;;;;5082121;28;20027;-79
2022/10/14 08:23:22;;;;;;;3.50;0.95;;;;;;;;;;5073436;28;20041;-78
2022/10/14 08:25:48;;;;;;;1.25;0.90;;;;;;;;;;5069489;28;20051;-79
2022/10/14 08:28:14;;;;;;;3.47;1.20;;;;;;;;;;5054813;28;20140;-79
2022/10/14 08:30:41;;;;;;;3.47;1.20;;;;;;;;;;5073689;28;20076;-80
2022/10/14 08:33:07;;;;;;;2.78;1.00;;;;;;;;;;5057230;28;20036;-78
2022/10/14 08:35:33;;;;;;;2.17;1.00;;;;;;;;;;5083085;28;20102;-78
2022/10/14 08:38:00;;;;;;;0.80;0.80;;;;;;;;;;5083892;28;20050;-77
2022/10/14 08:40:27;;;;;;;1.33;0.70;;;;;;;;;;5054756;28;20054;-77
2022/10/14 08:43:01;;;;;;;2.25;0.73;;;;;;;;;;5077940;28;20479;-74
2022/10/14 08:45:35;;;;;;;1.48;1.00;;;;;;;;;;5093733;28;20504;-75
2022/10/14 08:48:14;;;;;;;1.52;0.60;;;;;;;;;;5078636;28;20064;-78
2022/10/14 08:50:57;;;;;;;2.10;1.00;;;;;;;;;;5081387;28;20054;-78
2022/10/14 08:53:27;;;;;;;2.58;1.23;;;;;;;;;;5096910;28;20377;-75
2022/10/14 08:55:55;;;;;;;1.23;0.77;;;;;;;;;;5072051;28;20453;-77
2022/10/14 08:58:30;;;;;;;1.77;0.57;;;;;;;;;;5073407;28;20051;-77
2022/10/14 09:00:59;;;;;;;1.80;0.85;;;;;;;;;;5102222;28;20047;-79
2022/10/14 09:03:32;;;;;;;1.08;0.90;;;;;;;;;;5078821;28;20036;-74
2022/10/14 09:06:02;;;;;;;1.80;1.00;;;;;;;;;;5072141;28;20428;-75
2022/10/14 09:08:44;;;;;;;2.65;0.90;;;;;;;;;;5069512;28;20040;-75
2022/10/14 09:11:19;;;;;;;3.38;0.70;;;;;;;;;;5051523;28;20028;-77
2022/10/14 09:13:56;;;;;;;1.63;0.95;;;;;;;;;;5090989;28;20048;-79
2022/10/14 09:16:24;;;;;;;1.13;0.75;;;;;;;;;;5050141;28;20085;-78
2022/10/14 09:18:52;;;;;;;3.40;0.70;;;;;;;;;;5088302;28;20052;-74
2022/10/14 09:21:23;;;;;;;3.67;1.00;;;;;;;;;;5060716;28;20478;-78
2022/10/14 09:23:55;;;;;;;3.25;1.10;;;;;;;;;;5084116;28;20044;-79
2022/10/14 09:26:20;;;;;;;5.90;1.10;;;;;;;;;;5044787;28;20025;-74
2022/10/14 09:28:52;;;;;;;2.40;1.13;;;;;;;;;;5082762;28;20071;-81
2022/10/14 09:31:19;;;;;;;1.75;0.80;;;;;;;;;;5075002;28;20040;-79
2022/10/14 09:33:47;;;;;;;2.50;1.10;;;;;;;;;;5109468;28;20040;-79
2022/10/14 09:36:19;;;;;;;3.05;1.42;;;;;;;;;;5107212;28;20575;-78
2022/10/14 09:38:46;;;;;;;3.33;1.35;;;;;;;;;;5099883;28;20039;-80
2022/10/14 09:41:14;;;;;;;5.38;1.58;;;;;;;;;;5084784;28;20122;-79
2022/10/14 09:43:59;;;;;;;8.07;1.90;;;;;;;;;;5088265;28;20056;-75
2022/10/14 09:46:24;;;;;;;5.75;2.03;;;;;;;;;;5057578;28;20081;-80
2022/10/14 09:48:51;;;;;;;6.97;2.10;;;;;;;;;;5056146;28;20067;-82
2022/10/14 09:51:17;;;;;;;6.70;2.47;;;;;;;;;;5100173;28;20451;-80
2022/10/14 09:53:55;;;;;;;3.05;1.67;;;;;;;;;;5060942;28;20189;-80
2022/10/14 09:56:29;;;;;;;2.85;1.65;;;;;;;;;;5090489;28;20028;-74
2022/10/14 09:58:56;;;;;;;2.45;1.60;;;;;;;;;;5082319;28;20509;-81
2022/10/14 10:01:22;;;;;;;8.73;1.77;;;;;;;;;;5109105;28;20032;-81
2022/10/14 10:03:49;;;;;;;3.70;1.50;;;;;;;;;;5093445;28;20039;-80
2022/10/14 10:06:22;;;;;;;6.85;1.40;;;;;;;;;;5107936;28;20040;-78
2022/10/14 10:08:54;;;;;;;2.35;1.20;;;;;;;;;;5076328;28;20125;-80
2022/10/14 10:11:32;;;;;;;4.35;1.20;;;;;;;;;;5087772;28;20047;-79
2022/10/14 10:13:58;;;;;;;2.00;1.42;;;;;;;;;;5091462;28;20521;-80
2022/10/14 10:16:26;;;;;;;2.08;1.65;;;;;;;;;;5075623;28;20436;-78
2022/10/14 10:18:54;;;;;;;3.38;1.33;;;;;;;;;;5095615;28;20071;-75
2022/10/14 10:21:28;;;;;;;4.88;1.60;;;;;;;;;;5086388;28;20035;-78
2022/10/14 10:23:59;;;;;;;3.65;1.45;;;;;;;;;;5076096;28;20032;-78
2022/10/14 10:26:31;;;;;;;5.22;1.35;;;;;;;;;;5056648;28;20040;-80
2022/10/14 10:28:57;;;;;;;3.25;1.17;;;;;;;;;;5054596;28;20044;-76
2022/10/14 10:31:23;;;;;;;1.70;1.30;;;;;;;;;;5097558;28;20040;-81
2022/10/14 10:33:54;;;;;;;1.85;1.40;;;;;;;;;;5066775;28;20047;-81
2022/10/14 10:36:27;;;;;;;3.63;1.33;;;;;;;;;;5098996;28;20066;-82
2022/10/14 10:38:56;;;;;;;6.88;1.50;;;;;;;;;;5085242;28;20046;-81
2022/10/14 10:41:24;;;;;;;3.55;1.67;;;;;;;;;;5080326;28;20035;-80
2022/10/14 10:43:52;;;;;;;1.58;1.40;;;;;;;;;;5053294;28;20059;-79
2022/10/14 10:46:39;;;;;;;3.13;1.40;;;;;;;;;;5084477;28;20031;-81
2022/10/14 10:49:14;;;;;;;6.28;1.70;;;;;;;;;;5068650;28;20184;-79
2022/10/14 10:51:43;;;;;;;10.20;1.90;;;;;;;;;;5086160;28;20032;-78
2022/10/14 10:54:35;;;;;;;1.73;1.52;;;;;;;;;;5052048;28;20418;-76
2022/10/14 10:57:28;;;;;;;1.60;1.33;;;;;;;;;;5065082;28;20035;-81
2022/10/14 10:59:57;;;;;;;1.70;1.30;;;;;;;;;;5082804;28;20041;-77
2022/10/14 11:02:44;;;;;;;3.78;1.30;;;;;;;;;;5053125;28;20067;-76
2022/10/14 11:05:17;;;;;;;2.05;1.20;;;;;;;;;;5072417;28;20042;-78
2022/10/14 11:13:50;;;;;;;3.22;1.40;;;;;;;;;;5065732;28;20047;-75
2022/10/14 11:16:16;;;;;;;3.15;1.70;;;;;;;;;;5069140;28;20038;-77
2022/10/14 11:18:48;;;;;;;4.10;1.88;;;;;;;;;;5066906;28;20046;-76
2022/10/14 11:21:32;;;;;;;2.90;1.30;;;;;;;;;;5062842;28;20047;-77
2022/10/14 11:23:59;;;;;;;2.22;1.50;;;;;;;;;;5039909;28;20060;-81
2022/10/14 11:26:36;;;;;;;3.58;1.45;;;;;;;;;;5042567;28;20033;-82
2022/10/14 11:29:15;;;;;;;3.08;1.77;;;;;;;;;;5039391;28;20036;-79
2022/10/14 11:31:50;;;;;;;5.00;2.30;;;;;;;;;;5075074;28;20100;-81
2022/10/14 11:34:21;;;;;;;7.68;2.75;;;;;;;;;;5069343;28;20131;-76
2022/10/14 11:37:12;;;;;;;5.28;2.33;;;;;;;;;;5048971;28;20120;-76
2022/10/14 11:39:46;;;;;;;3.85;1.70;;;;;;;;;;5068468;28;20494;-76
2022/10/14 11:42:51;;;;;;;4.55;1.70;;;;;;;;;;5081915;28;20497;-80
2022/10/14 11:45:37;;;;;;;6.00;1.55;;;;;;;;;;5021213;28;20392;-77
2022/10/14 11:48:09;;;;;;;3.00;1.50;;;;;;;;;;5032050;28;20466;-75
2022/10/14 11:50:38;;;;;;;3.80;1.40;;;;;;;;;;5089521;28;20047;-76
2022/10/14 11:53:13;;;;;;;3.13;1.40;;;;;;;;;;5047730;28;20109;-76
2022/10/14 11:55:43;;;;;;;3.95;1.80;;;;;;;;;;5056663;28;20489;-77
2022/10/14 11:58:12;;;;;;;3.28;2.00;;;;;;;;;;5082364;28;20079;-79
2022/10/14 12:00:58;;;;;;;3.90;2.20;;;;;;;;;;5066049;28;20127;-76
2022/10/14 12:03:39;;;;;;;4.78;2.08;;;;;;;;;;5070789;28;20125;-75
2022/10/14 12:06:11;;;;;;;4.07;2.03;;;;;;;;;;5049943;28;20059;-75
2022/10/14 12:08:46;;;;;;;3.30;1.80;;;;;;;;;;5081056;28;20036;-74
2022/10/14 12:11:17;;;;;;;3.90;2.50;;;;;;;;;;5054666;28;20040;-73
2022/10/14 12:13:51;;;;;;;3.05;2.00;;;;;;;;;;5077420;28;20099;-74
2022/10/14 12:16:18;;;;;;;3.70;2.22;;;;;;;;;;5070628;28;20160;-75
2022/10/14 12:18:52;;;;;;;4.70;2.20;;;;;;;;;;5054238;28;20097;-75
2022/10/14 12:21:23;;;;;;;8.27;2.20;;;;;;;;;;5087944;28;20040;-74
2022/10/14 12:23:58;;;;;;;5.78;2.38;;;;;;;;;;5093624;28;20339;-77
2022/10/14 12:26:24;;;;;;;9.95;2.65;;;;;;;;;;5086243;28;20070;-76
2022/10/14 12:28:50;;;;;;;3.25;1.90;;;;;;;;;;5064466;28;20032;-75
2022/10/14 12:31:20;;;;;;;2.20;1.95;;;;;;;;;;5074257;28;20040;-76
2022/10/14 12:34:05;;;;;;;7.40;2.30;;;;;;;;;;5074137;28;20040;-79
2022/10/14 12:36:31;;;;;;;4.22;2.65;;;;;;;;;;5064893;28;20369;-77
2022/10/14 12:39:15;;;;;;;5.93;3.10;;;;;;;;;;5047771;28;20035;-77
2022/10/14 12:41:47;;;;;;;6.18;3.17;;;;;;;;;;5085673;28;20097;-78
2022/10/14 12:44:18;;;;;;;8.57;3.47;;;;;;;;;;5083413;28;20055;-75
2022/10/14 12:47:28;;;;;;;;;;;;;;;;;;5067948;28;20059;-76
2022/10/14 12:49:55;;;;;;;8.75;3.08;;;;;;;;;;5086696;28;19919;-73
2022/10/14 12:52:30;;;;;;;7.20;3.33;;;;;;;;;;5088156;28;20069;-77
2022/10/14 12:54:57;;;;;;;6.75;2.92;;;;;;;;;;5060184;28;20036;-76
2022/10/14 12:57:34;;;;;;;12.70;3.80;;;;;;;;;;5078452;28;20062;-75
2022/10/14 13:00:00;;;;;;;8.32;3.05;;;;;;;;;;5070457;28;20035;-77
2022/10/14 13:02:32;;;;;;;9.52;2.90;;;;;;;;;;5080721;28;20458;-77
2022/10/14 13:05:00;;;;;;;11.07;2.92;;;;;;;;;;5048647;28;20474;-78
2022/10/14 13:07:26;;;;;;;3.63;2.90;;;;;;;;;;5080738;28;20040;-77
2022/10/14 13:09:57;;;;;;;19.10;3.95;;;;;;;;;;5081665;28;20028;-77
2022/10/14 13:12:25;;;;;;;4.57;2.88;;;;;;;;;;5096875;28;20132;-78
2022/10/14 13:14:57;;;;;;;4.85;3.00;;;;;;;;;;5065188;28;20486;-77
2022/10/14 13:17:28;;;;;;;6.82;3.22;;;;;;;;;;5083509;28;20036;-77
2022/10/14 13:19:55;;;;;;;8.82;4.00;;;;;;;;;;5056449;28;20432;-76
2022/10/14 13:22:27;;;;;;;6.32;3.83;;;;;;;;;;5082020;28;20040;-76
2022/10/14 13:25:06;;;;;;;6.78;4.03;;;;;;;;;;5049849;28;20032;-76
2022/10/14 13:27:54;;;;;;;5.60;3.63;;;;;;;;;;5047995;28;20090;-77
2022/10/14 13:30:23;;;;;;;3.55;2.67;;;;;;;;;;5070848;28;20036;-77
2022/10/14 13:32:52;;;;;;;9.30;3.67;;;;;;;;;;5064429;28;20050;-76
2022/10/14 13:35:41;;;;;;;10.85;4.60;;;;;;;;;;5083059;28;20049;-76
2022/10/14 13:38:15;;;;;;;13.68;5.07;;;;;;;;;;5062501;28;20024;-77
2022/10/14 13:40:46;;;;;;;9.52;3.78;;;;;;;;;;5081168;28;20046;-76
2022/10/14 13:43:12;;;;;;;10.30;3.30;;;;;;;;;;5055010;28;20148;-78
2022/10/14 13:45:40;;;;;;;8.13;3.40;;;;;;;;;;5071659;28;20056;-78
2022/10/14 13:48:12;;;;;;;8.70;3.33;;;;;;;;;;5070510;28;20116;-76
2022/10/14 13:50:38;;;;;;;5.93;3.20;;;;;;;;;;5038218;28;20082;-77
2022/10/14 13:53:05;;;;;;;6.93;3.17;;;;;;;;;;5055645;28;20032;-77
2022/10/14 13:55:41;;;;;;;14.98;3.03;;;;;;;;;;5063891;28;20055;-76
2022/10/14 13:58:16;;;;;;;6.93;3.40;;;;;;;;;;5080537;28;20036;-77
2022/10/14 14:00:50;;;;;;;7.32;3.03;;;;;;;;;;5077865;28;20041;-76
2022/10/14 14:03:20;;;;;;;12.35;3.50;;;;;;;;;;5062488;28;20096;-79
2022/10/14 14:05:46;;;;;;;7.93;4.05;;;;;;;;;;5073296;28;20028;-77
2022/10/14 14:08:17;;;;;;;13.48;5.57;;;;;;;;;;5090121;28;20535;-80
2022/10/14 14:10:42;;;;;;;;;;;;;;;;;;5068600;28;20032;-78
2022/10/14 14:13:10;;;;;;;13.40;4.50;;;;;;;;;;5036955;28;19916;-76
2022/10/14 14:15:35;;;;;;;7.47;3.58;;;;;;;;;;5056635;28;20044;-75
2022/10/14 14:18:01;;;;;;;9.65;4.07;;;;;;;;;;5074922;28;20032;-79
2022/10/14 14:20:28;;;;;;;8.23;3.97;;;;;;;;;;5041287;28;20343;-80
2022/10/14 14:22:56;;;;;;;7.88;4.43;;;;;;;;;;5040610;28;20106;-77
2022/10/14 14:25:22;;;;;;;14.25;5.30;;;;;;;;;;5042688;28;20017;-78
2022/10/14 14:28:07;;;;;;;8.82;4.68;;;;;;;;;;5062418;28;20386;-79
2022/10/14 14:30:34;;;;;;;11.60;5.32;;;;;;;;;;5060757;28;20045;-75
2022/10/14 14:33:03;;;;;;;12.30;5.80;;;;;;;;;;5093314;28;20039;-76
2022/10/14 14:35:29;;;;;;;12.07;5.20;;;;;;;;;;5077594;28;20547;-76
2022/10/14 14:37:54;;;;;;;12.80;6.07;;;;;;;;;;5074911;28;20075;-75
2022/10/14 14:40:20;;;;;;;13.95;5.78;;;;;;;;;;5073395;28;20032;-76
2022/10/14 14:42:49;;;;;;;12.55;5.45;;;;;;;;;;5056172;28;20052;-77
2022/10/14 14:45:19;;;;;;;13.57;5.32;;;;;;;;;;5073289;28;20431;-76
2022/10/14 14:47:49;;;;;;;10.45;4.13;;;;;;;;;;5072999;28;20094;-75
2022/10/14 14:50:17;;;;;;;9.63;3.90;;;;;;;;;;5071883;28;20032;-77
2022/10/14 14:52:46;;;;;;;10.77;4.25;;;;;;;;;;5093266;28;20493;-74
2022/10/14 14:55:31;;;;;;;14.15;4.60;;;;;;;;;;5110357;28;20051;-75
2022/10/14 14:57:59;;;;;;;13.48;5.55;;;;;;;;;;5093092;28;20096;-74
2022/10/14 15:00:25;;;;;;;12.20;4.50;;;;;;;;;;5072732;28;20044;-75
2022/10/14 15:02:55;;;;;;;11.27;3.95;;;;;;;;;;5045466;28;20486;-75